sensor_id;sensor_type;location;lat;lon;timestamp;temperature;humidity
7002;DHT22;3541;53.230;10.518;2023-09-07T00:00:07;24.00;99.90
7002;DHT22;3541;53.230;10.518;2023-09-07T00:02:36;23.90;99.90
7002;DHT22;3541;53.230;10.518;2023-09-07T00:05:04;23.80;99.90
7002;DHT22;3541;53.230;10.518;2023-09-07T00:07:31;23.90;99.90
7002;DHT22;3541;53.230;10.518;2023-09-07T00:09:58;23.90;99.90
7002;DHT22;3541;53.230;10.518;2023-09-07T00:12:25;23.90;99.90
7002;DHT22;3541;53.230;10.518;2023-09-07T00:14:52;23.90;99.90
7002;DHT22;3541;53.230;10.518;2023-09-07T00:17:19;23.80;99.90
7002;DHT22;3541;53.230;10.518;2023-09-07T00:19:46;23.80;99.90
7002;DHT22;3541;53.230;10.518;2023-09-07T00:22:15;23.80;99.90
7002;DHT22;3541;53.230;10.518;2023-09-07T00:24:42;23.80;99.90
7002;DHT22;3541;53.230;10.518;2023-09-07T00:27:09;23.70;99.90
7002;DHT22;3541;53.230;10.518;2023-09-07T00:29:37;23.60;99.90
7002;DHT22;3541;53.230;10.518;2023-09-07T00:32:04;23.60;99.90
7002;DHT22;3541;53.230;10.518;2023-09-07T00:34:31;23.60;99.90
7002;DHT22;3541;53.230;10.518;2023-09-07T00:36:58;23.60;99.90
7002;DHT22;3541;53.230;10.518;2023-09-07T00:39:26;23.70;99.90
7002;DHT22;3541;53.230;10.518;2023-09-07T00:41:52;23.60;99.90
7002;DHT22;3541;53.230;10.518;2023-09-07T00:44:19;23.70;99.90
7002;DHT22;3541;53.230;10.518;2023-09-07T00:46:45;23.60;99.90
7002;DHT22;3541;53.230;10.518;2023-09-07T00:49:13;23.50;99.90
7002;DHT22;3541;53.230;10.518;2023-09-07T00:51:40;23.60;99.90
7002;DHT22;3541;53.230;10.518;2023-09-07T00:54:07;23.50;99.90
7002;DHT22;3541;53.230;10.518;2023-09-07T00:56:35;23.50;99.90
7002;DHT22;3541;53.230;10.518;2023-09-07T00:59:02;23.50;99.90
7002;DHT22;3541;53.230;10.518;2023-09-07T01:01:30;23.50;99.90
7002;DHT22;3541;53.230;10.518;2023-09-07T01:03:58;23.40;99.90
7002;DHT22;3541;53.230;10.518;2023-09-07T01:06:28;23.40;99.90
7002;DHT22;3541;53.230;10.518;2023-09-07T01:08:57;23.40;99.90
7002;DHT22;3541;53.230;10.518;2023-09-07T01:11:37;23.40;99.90
7002;DHT22;3541;53.230;10.518;2023-09-07T01:14:04;23.30;99.90
7002;DHT22;3541;53.230;10.518;2023-09-07T01:16:31;23.30;99.90
7002;DHT22;3541;53.230;10.518;2023-09-07T01:18:59;23.20;99.90
7002;DHT22;3541;53.230;10.518;2023-09-07T01:21:26;23.30;99.90
7002;DHT22;3541;53.230;10.518;2023-09-07T01:23:55;23.20;99.90
7002;DHT22;3541;53.230;10.518;2023-09-07T01:26:22;23.10;99.90
7002;DHT22;3541;53.230;10.518;2023-09-07T01:28:49;23.10;99.90
7002;DHT22;3541;53.230;10.518;2023-09-07T01:31:15;23.10;99.90
7002;DHT22;3541;53.230;10.518;2023-09-07T01:33:42;23.10;99.90
7002;DHT22;3541;53.230;10.518;2023-09-07T01:36:10;23.00;99.90
7002;DHT22;3541;53.230;10.518;2023-09-07T01:38:36;23.00;99.90
7002;DHT22;3541;53.230;10.518;2023-09-07T01:41:04;22.90;99.90
7002;DHT22;3541;53.230;10.518;2023-09-07T01:43:31;23.00;99.90
7002;DHT22;3541;53.230;10.518;2023-09-07T01:45:57;23.00;99.90
7002;DHT22;3541;53.230;10.518;2023-09-07T01:48:24;22.90;99.90
7002;DHT22;3541;53.230;10.518;2023-09-07T01:50:52;22.90;99.90
7002;DHT22;3541;53.230;10.518;2023-09-07T01:53:19;22.90;99.90
7002;DHT22;3541;53.230;10.518;2023-09-07T01:55:45;22.80;99.90
7002;DHT22;3541;53.230;10.518;2023-09-07T01:58:14;22.80;99.90
7002;DHT22;3541;53.230;10.518;2023-09-07T02:00:40;22.80;99.90
7002;DHT22;3541;53.230;10.518;2023-09-07T02:03:07;22.80;99.90
7002;DHT22;3541;53.230;10.518;2023-09-07T02:05:34;22.80;99.90
7002;DHT22;3541;53.230;10.518;2023-09-07T02:08:00;22.80;99.90
7002;DHT22;3541;53.230;10.518;2023-09-07T02:10:27;22.70;99.90
7002;DHT22;3541;53.230;10.518;2023-09-07T02:12:53;22.70;99.90
7002;DHT22;3541;53.230;10.518;2023-09-07T02:15:23;22.60;99.90
7002;DHT22;3541;53.230;10.518;2023-09-07T02:17:50;22.60;99.90
7002;DHT22;3541;53.230;10.518;2023-09-07T02:20:18;22.50;99.90
7002;DHT22;3541;53.230;10.518;2023-09-07T02:22:45;22.60;99.90
7002;DHT22;3541;53.230;10.518;2023-09-07T02:25:12;22.50;99.90
7002;DHT22;3541;53.230;10.518;2023-09-07T02:27:38;22.50;99.90
7002;DHT22;3541;53.230;10.518;2023-09-07T02:30:06;22.50;99.90
7002;DHT22;3541;53.230;10.518;2023-09-07T02:32:34;22.50;99.90
7002;DHT22;3541;53.230;10.518;2023-09-07T02:35:00;22.50;99.90
7002;DHT22;3541;53.230;10.518;2023-09-07T02:37:27;22.50;99.90
7002;DHT22;3541;53.230;10.518;2023-09-07T02:39:53;22.50;99.90
7002;DHT22;3541;53.230;10.518;2023-09-07T02:42:20;22.50;99.90
7002;DHT22;3541;53.230;10.518;2023-09-07T02:44:47;22.50;99.90
7002;DHT22;3541;53.230;10.518;2023-09-07T02:47:13;22.50;99.90
7002;DHT22;3541;53.230;10.518;2023-09-07T02:49:42;22.30;99.90
7002;DHT22;3541;53.230;10.518;2023-09-07T02:52:08;22.30;99.90
7002;DHT22;3541;53.230;10.518;2023-09-07T02:54:35;22.40;99.90
7002;DHT22;3541;53.230;10.518;2023-09-07T02:57:02;22.30;99.90
7002;DHT22;3541;53.230;10.518;2023-09-07T02:59:28;22.30;99.90
7002;DHT22;3541;53.230;10.518;2023-09-07T03:01:55;22.30;99.90
7002;DHT22;3541;53.230;10.518;2023-09-07T03:04:21;22.30;99.90
7002;DHT22;3541;53.230;10.518;2023-09-07T03:06:50;22.30;99.90
7002;DHT22;3541;53.230;10.518;2023-09-07T03:09:16;22.20;99.90
7002;DHT22;3541;53.230;10.518;2023-09-07T03:11:43;22.20;99.90
7002;DHT22;3541;53.230;10.518;2023-09-07T03:14:09;22.10;99.90
7002;DHT22;3541;53.230;10.518;2023-09-07T03:16:36;22.10;99.90
7002;DHT22;3541;53.230;10.518;2023-09-07T03:19:04;22.10;99.90
7002;DHT22;3541;53.230;10.518;2023-09-07T03:21:30;22.00;99.90
7002;DHT22;3541;53.230;10.518;2023-09-07T03:23:58;22.00;99.90
7002;DHT22;3541;53.230;10.518;2023-09-07T03:26:25;22.00;99.90
7002;DHT22;3541;53.230;10.518;2023-09-07T03:28:51;21.90;99.90
7002;DHT22;3541;53.230;10.518;2023-09-07T03:31:18;21.90;99.90
7002;DHT22;3541;53.230;10.518;2023-09-07T03:33:44;21.90;99.90
7002;DHT22;3541;53.230;10.518;2023-09-07T03:36:11;21.90;99.90
7002;DHT22;3541;53.230;10.518;2023-09-07T03:38:39;21.80;99.90
7002;DHT22;3541;53.230;10.518;2023-09-07T03:41:07;21.80;99.90
7002;DHT22;3541;53.230;10.518;2023-09-07T03:43:33;21.80;99.90
7002;DHT22;3541;53.230;10.518;2023-09-07T03:46:00;21.70;99.90
7002;DHT22;3541;53.230;10.518;2023-09-07T03:48:27;21.70;99.90
7002;DHT22;3541;53.230;10.518;2023-09-07T03:50:53;21.80;99.90
7002;DHT22;3541;53.230;10.518;2023-09-07T03:53:20;21.70;99.90
7002;DHT22;3541;53.230;10.518;2023-09-07T03:55:47;21.70;99.90
7002;DHT22;3541;53.230;10.518;2023-09-07T03:58:14;21.70;99.90
7002;DHT22;3541;53.230;10.518;2023-09-07T04:00:41;21.60;99.90
7002;DHT22;3541;53.230;10.518;2023-09-07T04:03:08;21.60;99.90
7002;DHT22;3541;53.230;10.518;2023-09-07T04:05:36;21.50;99.90
7002;DHT22;3541;53.230;10.518;2023-09-07T04:08:04;21.50;99.90
7002;DHT22;3541;53.230;10.518;2023-09-07T04:10:30;21.50;99.90
7002;DHT22;3541;53.230;10.518;2023-09-07T04:12:57;21.50;99.90
7002;DHT22;3541;53.230;10.518;2023-09-07T04:15:25;21.40;99.90
7002;DHT22;3541;53.230;10.518;2023-09-07T04:17:52;21.40;99.90
7002;DHT22;3541;53.230;10.518;2023-09-07T04:20:20;21.40;99.90
7002;DHT22;3541;53.230;10.518;2023-09-07T04:22:46;21.40;99.90
7002;DHT22;3541;53.230;10.518;2023-09-07T04:25:13;21.40;99.90
7002;DHT22;3541;53.230;10.518;2023-09-07T04:27:39;21.40;99.90
7002;DHT22;3541;53.230;10.518;2023-09-07T04:30:07;21.30;99.90
7002;DHT22;3541;53.230;10.518;2023-09-07T04:32:35;21.20;99.90
7002;DHT22;3541;53.230;10.518;2023-09-07T04:35:02;21.20;99.90
7002;DHT22;3541;53.230;10.518;2023-09-07T04:37:28;21.20;99.90
7002;DHT22;3541;53.230;10.518;2023-09-07T04:39:55;21.20;99.90
7002;DHT22;3541;53.230;10.518;2023-09-07T04:42:22;21.10;99.90
7002;DHT22;3541;53.230;10.518;2023-09-07T04:44:48;21.10;99.90
7002;DHT22;3541;53.230;10.518;2023-09-07T04:47:15;21.10;99.90
7002;DHT22;3541;53.230;10.518;2023-09-07T04:49:48;21.00;99.90
7002;DHT22;3541;53.230;10.518;2023-09-07T04:52:16;21.00;99.90
7002;DHT22;3541;53.230;10.518;2023-09-07T04:54:43;21.00;99.90
7002;DHT22;3541;53.230;10.518;2023-09-07T04:57:09;21.00;99.90
7002;DHT22;3541;53.230;10.518;2023-09-07T04:59:36;21.00;99.90
7002;DHT22;3541;53.230;10.518;2023-09-07T05:02:03;21.00;99.90
7002;DHT22;3541;53.230;10.518;2023-09-07T05:04:29;21.00;99.90
7002;DHT22;3541;53.230;10.518;2023-09-07T05:06:58;20.90;99.90
7002;DHT22;3541;53.230;10.518;2023-09-07T05:09:24;20.90;99.90
7002;DHT22;3541;53.230;10.518;2023-09-07T05:11:52;20.90;99.90
7002;DHT22;3541;53.230;10.518;2023-09-07T05:14:18;20.90;99.90
7002;DHT22;3541;53.230;10.518;2023-09-07T05:16:45;20.90;99.90
7002;DHT22;3541;53.230;10.518;2023-09-07T05:19:12;20.80;99.90
7002;DHT22;3541;53.230;10.518;2023-09-07T05:21:38;20.80;99.90
7002;DHT22;3541;53.230;10.518;2023-09-07T05:24:06;20.80;99.90
7002;DHT22;3541;53.230;10.518;2023-09-07T05:26:33;20.90;99.90
7002;DHT22;3541;53.230;10.518;2023-09-07T05:28:59;20.80;99.90
7002;DHT22;3541;53.230;10.518;2023-09-07T05:31:26;20.90;99.90
7002;DHT22;3541;53.230;10.518;2023-09-07T05:33:53;20.90;99.90
7002;DHT22;3541;53.230;10.518;2023-09-07T05:36:19;20.90;99.90
7002;DHT22;3541;53.230;10.518;2023-09-07T05:38:46;20.90;99.90
7002;DHT22;3541;53.230;10.518;2023-09-07T05:41:14;20.90;99.90
7002;DHT22;3541;53.230;10.518;2023-09-07T05:43:40;20.90;99.90
7002;DHT22;3541;53.230;10.518;2023-09-07T05:46:07;20.90;99.90
7002;DHT22;3541;53.230;10.518;2023-09-07T05:48:33;20.90;99.90
7002;DHT22;3541;53.230;10.518;2023-09-07T05:51:00;20.80;99.90
7002;DHT22;3541;53.230;10.518;2023-09-07T05:53:26;20.80;99.90
7002;DHT22;3541;53.230;10.518;2023-09-07T05:55:53;20.90;99.90
7002;DHT22;3541;53.230;10.518;2023-09-07T05:58:21;20.90;99.90
7002;DHT22;3541;53.230;10.518;2023-09-07T06:00:47;20.90;99.90
7002;DHT22;3541;53.230;10.518;2023-09-07T06:03:14;20.90;99.90
7002;DHT22;3541;53.230;10.518;2023-09-07T06:05:41;20.90;99.90
7002;DHT22;3541;53.230;10.518;2023-09-07T06:08:07;20.90;99.90
7002;DHT22;3541;53.230;10.518;2023-09-07T06:10:34;20.90;99.90
7002;DHT22;3541;53.230;10.518;2023-09-07T06:13:01;20.90;99.90
7002;DHT22;3541;53.230;10.518;2023-09-07T06:15:29;20.90;99.90
7002;DHT22;3541;53.230;10.518;2023-09-07T06:17:56;20.90;99.90
7002;DHT22;3541;53.230;10.518;2023-09-07T06:20:23;21.00;99.90
7002;DHT22;3541;53.230;10.518;2023-09-07T06:22:49;21.00;99.90
7002;DHT22;3541;53.230;10.518;2023-09-07T06:25:16;21.10;99.90
7002;DHT22;3541;53.230;10.518;2023-09-07T06:27:42;21.00;99.90
7002;DHT22;3541;53.230;10.518;2023-09-07T06:30:09;21.10;99.90
7002;DHT22;3541;53.230;10.518;2023-09-07T06:32:37;21.00;99.90
7002;DHT22;3541;53.230;10.518;2023-09-07T06:35:06;21.00;99.90
7002;DHT22;3541;53.230;10.518;2023-09-07T06:37:33;21.10;99.90
7002;DHT22;3541;53.230;10.518;2023-09-07T06:39:59;21.20;99.90
7002;DHT22;3541;53.230;10.518;2023-09-07T06:42:26;21.20;99.90
7002;DHT22;3541;53.230;10.518;2023-09-07T06:44:52;21.20;99.90
7002;DHT22;3541;53.230;10.518;2023-09-07T06:47:19;21.20;99.90
7002;DHT22;3541;53.230;10.518;2023-09-07T06:49:47;21.20;99.90
7002;DHT22;3541;53.230;10.518;2023-09-07T06:52:14;21.30;99.90
7002;DHT22;3541;53.230;10.518;2023-09-07T06:54:40;21.30;99.90
7002;DHT22;3541;53.230;10.518;2023-09-07T06:57:07;21.30;99.90
7002;DHT22;3541;53.230;10.518;2023-09-07T06:59:34;21.30;99.90
7002;DHT22;3541;53.230;10.518;2023-09-07T07:02:00;21.40;99.90
7002;DHT22;3541;53.230;10.518;2023-09-07T07:04:30;21.40;99.90
7002;DHT22;3541;53.230;10.518;2023-09-07T07:06:58;21.50;99.90
7002;DHT22;3541;53.230;10.518;2023-09-07T07:09:26;21.60;99.90
7002;DHT22;3541;53.230;10.518;2023-09-07T07:11:53;21.70;99.90
7002;DHT22;3541;53.230;10.518;2023-09-07T07:14:19;21.70;99.90
7002;DHT22;3541;53.230;10.518;2023-09-07T07:16:46;21.80;99.90
7002;DHT22;3541;53.230;10.518;2023-09-07T07:19:12;21.80;99.90
7002;DHT22;3541;53.230;10.518;2023-09-07T07:21:39;21.90;99.90
7002;DHT22;3541;53.230;10.518;2023-09-07T07:24:07;22.00;99.90
7002;DHT22;3541;53.230;10.518;2023-09-07T07:26:34;22.00;99.90
7002;DHT22;3541;53.230;10.518;2023-09-07T07:29:01;22.10;99.90
7002;DHT22;3541;53.230;10.518;2023-09-07T07:31:28;22.10;99.90
7002;DHT22;3541;53.230;10.518;2023-09-07T07:33:55;22.20;99.90
7002;DHT22;3541;53.230;10.518;2023-09-07T07:36:21;22.20;99.90
7002;DHT22;3541;53.230;10.518;2023-09-07T07:38:48;22.20;99.90
7002;DHT22;3541;53.230;10.518;2023-09-07T07:41:16;22.30;99.90
7002;DHT22;3541;53.230;10.518;2023-09-07T07:43:43;22.30;99.90
7002;DHT22;3541;53.230;10.518;2023-09-07T07:46:09;22.40;99.90
7002;DHT22;3541;53.230;10.518;2023-09-07T07:48:36;22.40;99.90
7002;DHT22;3541;53.230;10.518;2023-09-07T07:51:03;22.50;99.90
7002;DHT22;3541;53.230;10.518;2023-09-07T07:53:30;22.50;99.90
7002;DHT22;3541;53.230;10.518;2023-09-07T07:55:57;22.50;99.90
7002;DHT22;3541;53.230;10.518;2023-09-07T07:58:25;22.60;99.90
7002;DHT22;3541;53.230;10.518;2023-09-07T08:00:51;22.60;99.90
7002;DHT22;3541;53.230;10.518;2023-09-07T08:03:19;22.70;99.90
7002;DHT22;3541;53.230;10.518;2023-09-07T08:05:47;22.80;99.90
7002;DHT22;3541;53.230;10.518;2023-09-07T08:08:13;22.80;99.90
7002;DHT22;3541;53.230;10.518;2023-09-07T08:10:40;22.80;99.90
7002;DHT22;3541;53.230;10.518;2023-09-07T08:13:07;22.90;99.90
7002;DHT22;3541;53.230;10.518;2023-09-07T08:15:35;23.00;99.90
7002;DHT22;3541;53.230;10.518;2023-09-07T08:18:02;23.00;99.90
7002;DHT22;3541;53.230;10.518;2023-09-07T08:20:29;23.10;99.90
7002;DHT22;3541;53.230;10.518;2023-09-07T08:22:55;23.10;99.90
7002;DHT22;3541;53.230;10.518;2023-09-07T08:25:23;23.20;99.90
7002;DHT22;3541;53.230;10.518;2023-09-07T08:27:51;23.20;99.90
7002;DHT22;3541;53.230;10.518;2023-09-07T08:30:21;23.30;99.90
7002;DHT22;3541;53.230;10.518;2023-09-07T08:32:51;23.40;99.90
7002;DHT22;3541;53.230;10.518;2023-09-07T08:35:18;23.40;99.90
7002;DHT22;3541;53.230;10.518;2023-09-07T08:37:44;23.50;99.90
7002;DHT22;3541;53.230;10.518;2023-09-07T08:40:11;23.60;99.90
7002;DHT22;3541;53.230;10.518;2023-09-07T08:42:38;23.60;99.90
7002;DHT22;3541;53.230;10.518;2023-09-07T08:45:08;23.70;99.90
7002;DHT22;3541;53.230;10.518;2023-09-07T08:47:37;23.80;99.90
7002;DHT22;3541;53.230;10.518;2023-09-07T08:50:06;23.80;99.90
7002;DHT22;3541;53.230;10.518;2023-09-07T08:52:33;23.90;99.90
7002;DHT22;3541;53.230;10.518;2023-09-07T08:55:01;24.00;99.90
7002;DHT22;3541;53.230;10.518;2023-09-07T08:57:30;24.10;99.90
7002;DHT22;3541;53.230;10.518;2023-09-07T08:59:57;24.10;99.90
7002;DHT22;3541;53.230;10.518;2023-09-07T09:02:23;24.20;99.90
7002;DHT22;3541;53.230;10.518;2023-09-07T09:04:50;24.20;99.90
7002;DHT22;3541;53.230;10.518;2023-09-07T09:07:19;24.30;99.90
7002;DHT22;3541;53.230;10.518;2023-09-07T09:09:46;24.40;99.90
7002;DHT22;3541;53.230;10.518;2023-09-07T09:12:13;24.50;99.90
7002;DHT22;3541;53.230;10.518;2023-09-07T09:14:42;24.60;99.90
7002;DHT22;3541;53.230;10.518;2023-09-07T09:17:11;24.60;99.90
7002;DHT22;3541;53.230;10.518;2023-09-07T09:19:39;24.70;99.90
7002;DHT22;3541;53.230;10.518;2023-09-07T09:22:06;24.80;99.90
7002;DHT22;3541;53.230;10.518;2023-09-07T09:24:34;24.80;99.90
7002;DHT22;3541;53.230;10.518;2023-09-07T09:27:01;24.90;99.90
7002;DHT22;3541;53.230;10.518;2023-09-07T09:29:28;25.00;99.90
7002;DHT22;3541;53.230;10.518;2023-09-07T09:31:55;25.00;99.90
7002;DHT22;3541;53.230;10.518;2023-09-07T09:34:22;25.10;99.90
7002;DHT22;3541;53.230;10.518;2023-09-07T09:36:49;25.10;99.90
7002;DHT22;3541;53.230;10.518;2023-09-07T09:39:22;25.20;99.90
7002;DHT22;3541;53.230;10.518;2023-09-07T09:41:51;25.30;99.90
7002;DHT22;3541;53.230;10.518;2023-09-07T09:44:20;25.40;99.90
7002;DHT22;3541;53.230;10.518;2023-09-07T09:46:47;25.50;99.90
7002;DHT22;3541;53.230;10.518;2023-09-07T09:49:16;25.50;99.90
7002;DHT22;3541;53.230;10.518;2023-09-07T09:51:45;25.50;99.90
7002;DHT22;3541;53.230;10.518;2023-09-07T09:54:12;25.60;99.90
7002;DHT22;3541;53.230;10.518;2023-09-07T09:56:38;25.70;99.90
7002;DHT22;3541;53.230;10.518;2023-09-07T09:59:06;25.70;99.90
7002;DHT22;3541;53.230;10.518;2023-09-07T10:01:38;25.80;99.90
7002;DHT22;3541;53.230;10.518;2023-09-07T10:04:08;25.90;99.90
7002;DHT22;3541;53.230;10.518;2023-09-07T10:06:36;26.00;99.90
7002;DHT22;3541;53.230;10.518;2023-09-07T10:09:05;26.10;99.90
7002;DHT22;3541;53.230;10.518;2023-09-07T10:11:33;26.10;99.90
7002;DHT22;3541;53.230;10.518;2023-09-07T10:14:01;26.10;99.90
7002;DHT22;3541;53.230;10.518;2023-09-07T10:16:41;26.20;99.90
7002;DHT22;3541;53.230;10.518;2023-09-07T10:19:15;26.30;99.90
7002;DHT22;3541;53.230;10.518;2023-09-07T10:21:42;26.40;99.90
7002;DHT22;3541;53.230;10.518;2023-09-07T10:24:09;26.40;99.90
7002;DHT22;3541;53.230;10.518;2023-09-07T10:26:35;26.50;99.90
7002;DHT22;3541;53.230;10.518;2023-09-07T10:29:02;26.50;99.90
7002;DHT22;3541;53.230;10.518;2023-09-07T10:31:32;26.60;99.90
7002;DHT22;3541;53.230;10.518;2023-09-07T10:34:08;26.60;99.90
7002;DHT22;3541;53.230;10.518;2023-09-07T10:36:36;26.70;99.90
7002;DHT22;3541;53.230;10.518;2023-09-07T10:39:03;26.80;99.90
7002;DHT22;3541;53.230;10.518;2023-09-07T10:41:39;26.90;99.90
7002;DHT22;3541;53.230;10.518;2023-09-07T10:44:14;26.90;99.90
7002;DHT22;3541;53.230;10.518;2023-09-07T10:46:41;27.10;99.90
7002;DHT22;3541;53.230;10.518;2023-09-07T10:49:10;27.10;99.90
7002;DHT22;3541;53.230;10.518;2023-09-07T10:51:41;27.20;99.90
7002;DHT22;3541;53.230;10.518;2023-09-07T10:54:15;27.30;99.90
7002;DHT22;3541;53.230;10.518;2023-09-07T10:56:44;27.30;99.90
7002;DHT22;3541;53.230;10.518;2023-09-07T10:59:11;27.40;99.90
7002;DHT22;3541;53.230;10.518;2023-09-07T11:01:38;27.40;99.90
7002;DHT22;3541;53.230;10.518;2023-09-07T11:04:05;27.50;99.90
7002;DHT22;3541;53.230;10.518;2023-09-07T11:06:33;27.50;99.90
7002;DHT22;3541;53.230;10.518;2023-09-07T11:09:02;27.60;99.90
7002;DHT22;3541;53.230;10.518;2023-09-07T11:11:31;27.60;99.90
7002;DHT22;3541;53.230;10.518;2023-09-07T11:13:59;27.70;99.90
7002;DHT22;3541;53.230;10.518;2023-09-07T11:16:26;27.80;99.90
7002;DHT22;3541;53.230;10.518;2023-09-07T11:18:54;27.90;99.90
7002;DHT22;3541;53.230;10.518;2023-09-07T11:21:21;28.00;99.90
7002;DHT22;3541;53.230;10.518;2023-09-07T11:23:48;28.00;99.90
7002;DHT22;3541;53.230;10.518;2023-09-07T11:26:14;28.10;99.90
7002;DHT22;3541;53.230;10.518;2023-09-07T11:28:45;28.20;99.90
7002;DHT22;3541;53.230;10.518;2023-09-07T11:31:11;28.30;99.90
7002;DHT22;3541;53.230;10.518;2023-09-07T11:33:40;28.40;99.90
7002;DHT22;3541;53.230;10.518;2023-09-07T11:36:08;28.40;99.90
7002;DHT22;3541;53.230;10.518;2023-09-07T11:38:36;28.40;99.90
7002;DHT22;3541;53.230;10.518;2023-09-07T11:41:03;28.40;99.90
7002;DHT22;3541;53.230;10.518;2023-09-07T11:43:29;28.50;99.90
7002;DHT22;3541;53.230;10.518;2023-09-07T11:45:56;28.50;99.90
7002;DHT22;3541;53.230;10.518;2023-09-07T11:48:23;28.60;99.90
7002;DHT22;3541;53.230;10.518;2023-09-07T11:50:49;28.80;99.90
7002;DHT22;3541;53.230;10.518;2023-09-07T11:53:17;28.70;99.90
7002;DHT22;3541;53.230;10.518;2023-09-07T11:55:44;28.80;99.90
7002;DHT22;3541;53.230;10.518;2023-09-07T11:58:10;28.90;99.90
7002;DHT22;3541;53.230;10.518;2023-09-07T12:00:37;29.10;99.90
7002;DHT22;3541;53.230;10.518;2023-09-07T12:03:05;29.10;99.90
7002;DHT22;3541;53.230;10.518;2023-09-07T12:05:31;29.20;99.90
7002;DHT22;3541;53.230;10.518;2023-09-07T12:07:58;29.20;99.90
7002;DHT22;3541;53.230;10.518;2023-09-07T12:10:27;29.20;99.90
7002;DHT22;3541;53.230;10.518;2023-09-07T12:12:53;29.30;99.90
7002;DHT22;3541;53.230;10.518;2023-09-07T12:15:20;29.30;99.90
7002;DHT22;3541;53.230;10.518;2023-09-07T12:17:46;29.40;99.90
7002;DHT22;3541;53.230;10.518;2023-09-07T12:20:14;29.50;99.90
7002;DHT22;3541;53.230;10.518;2023-09-07T12:22:42;29.70;99.90
7002;DHT22;3541;53.230;10.518;2023-09-07T12:25:08;29.80;99.90
7002;DHT22;3541;53.230;10.518;2023-09-07T12:27:37;29.70;99.90
7002;DHT22;3541;53.230;10.518;2023-09-07T12:30:05;29.80;99.90
7002;DHT22;3541;53.230;10.518;2023-09-07T12:32:37;29.80;99.90
7002;DHT22;3541;53.230;10.518;2023-09-07T12:35:04;29.90;99.90
7002;DHT22;3541;53.230;10.518;2023-09-07T12:37:34;30.00;99.90
7002;DHT22;3541;53.230;10.518;2023-09-07T12:40:00;30.10;99.90
7002;DHT22;3541;53.230;10.518;2023-09-07T12:42:27;30.10;99.90
7002;DHT22;3541;53.230;10.518;2023-09-07T12:44:55;30.10;99.90
7002;DHT22;3541;53.230;10.518;2023-09-07T12:47:22;30.20;99.90
7002;DHT22;3541;53.230;10.518;2023-09-07T12:49:48;30.30;99.90
7002;DHT22;3541;53.230;10.518;2023-09-07T12:52:15;30.30;99.90
7002;DHT22;3541;53.230;10.518;2023-09-07T12:54:41;30.30;99.90
7002;DHT22;3541;53.230;10.518;2023-09-07T12:57:08;30.40;99.90
7002;DHT22;3541;53.230;10.518;2023-09-07T12:59:35;30.40;99.90
7002;DHT22;3541;53.230;10.518;2023-09-07T13:02:03;30.50;99.90
7002;DHT22;3541;53.230;10.518;2023-09-07T13:04:29;30.50;99.90
7002;DHT22;3541;53.230;10.518;2023-09-07T13:06:56;30.60;99.90
7002;DHT22;3541;53.230;10.518;2023-09-07T13:09:23;30.60;99.90
7002;DHT22;3541;53.230;10.518;2023-09-07T13:11:49;30.50;99.90
7002;DHT22;3541;53.230;10.518;2023-09-07T13:14:16;30.60;99.90
7002;DHT22;3541;53.230;10.518;2023-09-07T13:16:42;30.70;99.90
7002;DHT22;3541;53.230;10.518;2023-09-07T13:19:11;30.70;99.90
7002;DHT22;3541;53.230;10.518;2023-09-07T13:21:38;30.80;99.90
7002;DHT22;3541;53.230;10.518;2023-09-07T13:24:05;30.80;99.90
7002;DHT22;3541;53.230;10.518;2023-09-07T13:26:31;30.90;99.90
7002;DHT22;3541;53.230;10.518;2023-09-07T13:28:59;30.90;99.90
7002;DHT22;3541;53.230;10.518;2023-09-07T13:31:25;30.90;99.90
7002;DHT22;3541;53.230;10.518;2023-09-07T13:33:52;30.90;99.90
7002;DHT22;3541;53.230;10.518;2023-09-07T13:36:19;31.10;99.90
7002;DHT22;3541;53.230;10.518;2023-09-07T13:38:46;31.20;99.90
7002;DHT22;3541;53.230;10.518;2023-09-07T13:41:13;31.30;99.90
7002;DHT22;3541;53.230;10.518;2023-09-07T13:43:39;31.50;99.90
7002;DHT22;3541;53.230;10.518;2023-09-07T13:46:06;31.60;99.90
7002;DHT22;3541;53.230;10.518;2023-09-07T13:48:32;31.50;99.90
7002;DHT22;3541;53.230;10.518;2023-09-07T13:50:59;31.40;99.90
7002;DHT22;3541;53.230;10.518;2023-09-07T13:53:27;31.50;99.90
7002;DHT22;3541;53.230;10.518;2023-09-07T13:55:53;31.70;99.90
7002;DHT22;3541;53.230;10.518;2023-09-07T13:58:20;31.90;99.90
7002;DHT22;3541;53.230;10.518;2023-09-07T14:00:46;31.90;99.90
7002;DHT22;3541;53.230;10.518;2023-09-07T14:03:13;32.00;99.90
7002;DHT22;3541;53.230;10.518;2023-09-07T14:05:40;32.00;99.90
7002;DHT22;3541;53.230;10.518;2023-09-07T14:08:06;32.10;99.90
7002;DHT22;3541;53.230;10.518;2023-09-07T14:10:34;32.20;99.90
7002;DHT22;3541;53.230;10.518;2023-09-07T14:13:01;32.30;99.90
7002;DHT22;3541;53.230;10.518;2023-09-07T14:15:27;32.30;99.90
7002;DHT22;3541;53.230;10.518;2023-09-07T14:17:54;32.30;99.90
7002;DHT22;3541;53.230;10.518;2023-09-07T14:20:20;32.50;99.90
7002;DHT22;3541;53.230;10.518;2023-09-07T14:22:47;32.60;99.30
7002;DHT22;3541;53.230;10.518;2023-09-07T14:25:13;32.70;99.50
7002;DHT22;3541;53.230;10.518;2023-09-07T14:27:43;32.80;99.10
7002;DHT22;3541;53.230;10.518;2023-09-07T14:30:10;32.90;98.60
7002;DHT22;3541;53.230;10.518;2023-09-07T14:32:38;33.00;99.00
7002;DHT22;3541;53.230;10.518;2023-09-07T14:35:05;32.90;98.80
7002;DHT22;3541;53.230;10.518;2023-09-07T14:37:32;33.00;98.40
7002;DHT22;3541;53.230;10.518;2023-09-07T14:39:58;33.10;97.60
7002;DHT22;3541;53.230;10.518;2023-09-07T14:42:25;33.00;97.80
7002;DHT22;3541;53.230;10.518;2023-09-07T14:44:53;33.00;97.50
7002;DHT22;3541;53.230;10.518;2023-09-07T14:47:19;32.90;97.20
7002;DHT22;3541;53.230;10.518;2023-09-07T14:49:50;33.00;96.90
7002;DHT22;3541;53.230;10.518;2023-09-07T14:52:17;33.20;96.80
7002;DHT22;3541;53.230;10.518;2023-09-07T14:54:43;33.30;96.90
7002;DHT22;3541;53.230;10.518;2023-09-07T14:57:10;33.20;96.70
7002;DHT22;3541;53.230;10.518;2023-09-07T14:59:37;33.30;95.70
7002;DHT22;3541;53.230;10.518;2023-09-07T15:02:06;33.40;95.70
7002;DHT22;3541;53.230;10.518;2023-09-07T15:04:33;33.50;94.70
7002;DHT22;3541;53.230;10.518;2023-09-07T15:07:00;33.60;94.90
7002;DHT22;3541;53.230;10.518;2023-09-07T15:09:26;33.40;94.00
7002;DHT22;3541;53.230;10.518;2023-09-07T15:11:53;33.40;94.80
7002;DHT22;3541;53.230;10.518;2023-09-07T15:14:20;33.50;94.90
7002;DHT22;3541;53.230;10.518;2023-09-07T15:16:47;33.50;93.80
7002;DHT22;3541;53.230;10.518;2023-09-07T15:19:14;33.60;93.50
7002;DHT22;3541;53.230;10.518;2023-09-07T15:21:41;33.40;92.70
7002;DHT22;3541;53.230;10.518;2023-09-07T15:24:08;33.40;93.70
7002;DHT22;3541;53.230;10.518;2023-09-07T15:26:41;33.50;93.80
7002;DHT22;3541;53.230;10.518;2023-09-07T15:29:08;33.50;92.90
7002;DHT22;3541;53.230;10.518;2023-09-07T15:31:35;33.50;92.80
7002;DHT22;3541;53.230;10.518;2023-09-07T15:34:01;33.70;93.10
7002;DHT22;3541;53.230;10.518;2023-09-07T15:36:30;33.80;93.00
7002;DHT22;3541;53.230;10.518;2023-09-07T15:38:56;33.80;92.70
7002;DHT22;3541;53.230;10.518;2023-09-07T15:41:23;33.90;92.70
7002;DHT22;3541;53.230;10.518;2023-09-07T15:43:50;33.80;91.40